sensor_id;sensor_type;location;lat;lon;timestamp;P1;durP1;ratioP1;P2;durP2;ratioP2
7233;SDS011;3658;47.992;10.158;2023-06-22T00:01:15;3.27;;;2.60;;
7233;SDS011;3658;47.992;10.158;2023-06-22T00:03:42;4.17;;;2.50;;
7233;SDS011;3658;47.992;10.158;2023-06-22T00:06:10;2.77;;;2.30;;
7233;SDS011;3658;47.992;10.158;2023-06-22T00:08:37;5.37;;;3.20;;
7233;SDS011;3658;47.992;10.158;2023-06-22T00:11:04;4.33;;;2.50;;
7233;SDS011;3658;47.992;10.158;2023-06-22T00:13:31;4.03;;;2.80;;
7233;SDS011;3658;47.992;10.158;2023-06-22T00:15:58;5.13;;;2.67;;
7233;SDS011;3658;47.992;10.158;2023-06-22T00:18:24;5.37;;;2.73;;
7233;SDS011;3658;47.992;10.158;2023-06-22T00:20:53;3.37;;;2.63;;
7233;SDS011;3658;47.992;10.158;2023-06-22T00:23:24;2.97;;;2.50;;
7233;SDS011;3658;47.992;10.158;2023-06-22T00:25:51;3.73;;;2.80;;
7233;SDS011;3658;47.992;10.158;2023-06-22T00:28:18;3.90;;;2.30;;
7233;SDS011;3658;47.992;10.158;2023-06-22T00:30:45;2.93;;;2.23;;
7233;SDS011;3658;47.992;10.158;2023-06-22T00:33:12;2.93;;;2.30;;
7233;SDS011;3658;47.992;10.158;2023-06-22T00:35:39;4.60;;;2.30;;
7233;SDS011;3658;47.992;10.158;2023-06-22T00:38:06;2.90;;;2.57;;
7233;SDS011;3658;47.992;10.158;2023-06-22T00:40:34;2.73;;;2.53;;
7233;SDS011;3658;47.992;10.158;2023-06-22T00:43:01;3.37;;;2.90;;
7233;SDS011;3658;47.992;10.158;2023-06-22T00:45:29;2.80;;;2.23;;
7233;SDS011;3658;47.992;10.158;2023-06-22T00:47:57;4.10;;;2.40;;
7233;SDS011;3658;47.992;10.158;2023-06-22T00:50:25;3.37;;;2.47;;
7233;SDS011;3658;47.992;10.158;2023-06-22T00:52:55;2.53;;;2.00;;
7233;SDS011;3658;47.992;10.158;2023-06-22T00:55:23;3.40;;;2.20;;
7233;SDS011;3658;47.992;10.158;2023-06-22T00:57:52;3.80;;;2.40;;
7233;SDS011;3658;47.992;10.158;2023-06-22T01:00:20;2.97;;;2.67;;
7233;SDS011;3658;47.992;10.158;2023-06-22T01:02:49;2.60;;;2.20;;
7233;SDS011;3658;47.992;10.158;2023-06-22T01:05:17;2.30;;;1.80;;
7233;SDS011;3658;47.992;10.158;2023-06-22T01:07:47;3.53;;;2.27;;
7233;SDS011;3658;47.992;10.158;2023-06-22T01:10:23;2.40;;;2.07;;
7233;SDS011;3658;47.992;10.158;2023-06-22T01:12:58;2.60;;;2.00;;
7233;SDS011;3658;47.992;10.158;2023-06-22T01:15:28;2.37;;;2.07;;
7233;SDS011;3658;47.992;10.158;2023-06-22T01:17:57;2.40;;;2.20;;
7233;SDS011;3658;47.992;10.158;2023-06-22T01:20:25;2.37;;;2.17;;
7233;SDS011;3658;47.992;10.158;2023-06-22T01:22:57;2.37;;;2.07;;
7233;SDS011;3658;47.992;10.158;2023-06-22T01:25:33;2.67;;;2.20;;
7233;SDS011;3658;47.992;10.158;2023-06-22T01:28:13;2.73;;;2.17;;
7233;SDS011;3658;47.992;10.158;2023-06-22T01:30:50;5.10;;;2.47;;
7233;SDS011;3658;47.992;10.158;2023-06-22T01:33:28;2.33;;;2.07;;
7233;SDS011;3658;47.992;10.158;2023-06-22T01:35:57;3.30;;;2.30;;
7233;SDS011;3658;47.992;10.158;2023-06-22T01:38:24;2.50;;;2.20;;
7233;SDS011;3658;47.992;10.158;2023-06-22T01:40:51;2.63;;;2.23;;
7233;SDS011;3658;47.992;10.158;2023-06-22T01:43:19;3.20;;;2.17;;
7233;SDS011;3658;47.992;10.158;2023-06-22T01:45:49;3.27;;;2.40;;
7233;SDS011;3658;47.992;10.158;2023-06-22T01:48:17;2.63;;;1.90;;
7233;SDS011;3658;47.992;10.158;2023-06-22T01:50:44;2.67;;;1.97;;
7233;SDS011;3658;47.992;10.158;2023-06-22T01:53:11;1.90;;;1.80;;
7233;SDS011;3658;47.992;10.158;2023-06-22T01:55:38;3.10;;;2.00;;
7233;SDS011;3658;47.992;10.158;2023-06-22T01:58:04;3.00;;;1.83;;
7233;SDS011;3658;47.992;10.158;2023-06-22T02:00:33;2.50;;;1.80;;
7233;SDS011;3658;47.992;10.158;2023-06-22T02:03:08;2.00;;;1.80;;
7233;SDS011;3658;47.992;10.158;2023-06-22T02:05:43;2.17;;;1.97;;
7233;SDS011;3658;47.992;10.158;2023-06-22T02:08:17;2.37;;;1.90;;
7233;SDS011;3658;47.992;10.158;2023-06-22T02:10:46;2.87;;;1.90;;
7233;SDS011;3658;47.992;10.158;2023-06-22T02:13:15;2.17;;;1.97;;
7233;SDS011;3658;47.992;10.158;2023-06-22T02:15:43;3.10;;;2.00;;
7233;SDS011;3658;47.992;10.158;2023-06-22T02:18:12;2.77;;;2.07;;
7233;SDS011;3658;47.992;10.158;2023-06-22T02:20:39;2.47;;;2.00;;
7233;SDS011;3658;47.992;10.158;2023-06-22T02:23:06;2.50;;;2.00;;
7233;SDS011;3658;47.992;10.158;2023-06-22T02:25:33;2.37;;;1.80;;
7233;SDS011;3658;47.992;10.158;2023-06-22T02:28:01;2.60;;;2.20;;
7233;SDS011;3658;47.992;10.158;2023-06-22T02:30:28;1.90;;;1.70;;
7233;SDS011;3658;47.992;10.158;2023-06-22T02:32:55;2.40;;;1.87;;
7233;SDS011;3658;47.992;10.158;2023-06-22T02:35:26;2.47;;;1.93;;
7233;SDS011;3658;47.992;10.158;2023-06-22T02:37:56;1.80;;;1.70;;
7233;SDS011;3658;47.992;10.158;2023-06-22T02:40:24;2.10;;;1.87;;
7233;SDS011;3658;47.992;10.158;2023-06-22T02:42:51;2.47;;;1.93;;
7233;SDS011;3658;47.992;10.158;2023-06-22T02:45:18;1.90;;;1.73;;
7233;SDS011;3658;47.992;10.158;2023-06-22T02:47:44;2.07;;;1.70;;
7233;SDS011;3658;47.992;10.158;2023-06-22T02:50:12;4.27;;;2.10;;
7233;SDS011;3658;47.992;10.158;2023-06-22T02:52:41;1.90;;;1.70;;
7233;SDS011;3658;47.992;10.158;2023-06-22T02:55:08;2.00;;;1.70;;
7233;SDS011;3658;47.992;10.158;2023-06-22T02:57:35;2.03;;;1.80;;
7233;SDS011;3658;47.992;10.158;2023-06-22T03:00:02;1.97;;;1.77;;
7233;SDS011;3658;47.992;10.158;2023-06-22T03:02:41;2.30;;;2.00;;
7233;SDS011;3658;47.992;10.158;2023-06-22T03:05:08;1.70;;;1.60;;
7233;SDS011;3658;47.992;10.158;2023-06-22T03:07:38;2.77;;;1.80;;
7233;SDS011;3658;47.992;10.158;2023-06-22T03:10:07;2.00;;;1.90;;
7233;SDS011;3658;47.992;10.158;2023-06-22T03:12:35;1.70;;;1.60;;
7233;SDS011;3658;47.992;10.158;2023-06-22T03:15:02;2.20;;;2.00;;
7233;SDS011;3658;47.992;10.158;2023-06-22T03:17:30;2.10;;;1.90;;
7233;SDS011;3658;47.992;10.158;2023-06-22T03:19:57;1.80;;;1.70;;
7233;SDS011;3658;47.992;10.158;2023-06-22T03:22:24;2.00;;;1.70;;
7233;SDS011;3658;47.992;10.158;2023-06-22T03:24:52;3.10;;;1.67;;
7233;SDS011;3658;47.992;10.158;2023-06-22T03:27:19;1.70;;;1.60;;
7233;SDS011;3658;47.992;10.158;2023-06-22T03:29:45;1.90;;;1.73;;
7233;SDS011;3658;47.992;10.158;2023-06-22T03:32:12;3.37;;;1.80;;
7233;SDS011;3658;47.992;10.158;2023-06-22T03:34:39;2.90;;;1.60;;
7233;SDS011;3658;47.992;10.158;2023-06-22T03:37:06;2.07;;;1.60;;
7233;SDS011;3658;47.992;10.158;2023-06-22T03:39:32;2.60;;;1.90;;
7233;SDS011;3658;47.992;10.158;2023-06-22T03:42:01;1.60;;;1.50;;
7233;SDS011;3658;47.992;10.158;2023-06-22T03:44:27;1.93;;;1.67;;
7233;SDS011;3658;47.992;10.158;2023-06-22T03:46:54;1.80;;;1.70;;
7233;SDS011;3658;47.992;10.158;2023-06-22T03:49:21;1.80;;;1.70;;
7233;SDS011;3658;47.992;10.158;2023-06-22T03:51:48;2.03;;;1.60;;
7233;SDS011;3658;47.992;10.158;2023-06-22T03:54:14;1.93;;;1.53;;
7233;SDS011;3658;47.992;10.158;2023-06-22T03:56:41;1.77;;;1.67;;
7233;SDS011;3658;47.992;10.158;2023-06-22T03:59:09;1.83;;;1.53;;
7233;SDS011;3658;47.992;10.158;2023-06-22T04:01:36;2.00;;;1.80;;
7233;SDS011;3658;47.992;10.158;2023-06-22T04:04:03;1.60;;;1.50;;
7233;SDS011;3658;47.992;10.158;2023-06-22T04:06:30;1.70;;;1.50;;
7233;SDS011;3658;47.992;10.158;2023-06-22T04:08:59;1.57;;;1.47;;
7233;SDS011;3658;47.992;10.158;2023-06-22T04:11:26;1.60;;;1.50;;
7233;SDS011;3658;47.992;10.158;2023-06-22T04:13:53;2.07;;;1.70;;
7233;SDS011;3658;47.992;10.158;2023-06-22T04:16:21;1.50;;;1.40;;
7233;SDS011;3658;47.992;10.158;2023-06-22T04:18:48;1.60;;;1.50;;
7233;SDS011;3658;47.992;10.158;2023-06-22T04:21:15;1.50;;;1.40;;
7233;SDS011;3658;47.992;10.158;2023-06-22T04:23:42;1.97;;;1.53;;
7233;SDS011;3658;47.992;10.158;2023-06-22T04:26:09;1.70;;;1.60;;
7233;SDS011;3658;47.992;10.158;2023-06-22T04:28:35;1.60;;;1.50;;
7233;SDS011;3658;47.992;10.158;2023-06-22T04:31:02;1.70;;;1.60;;
7233;SDS011;3658;47.992;10.158;2023-06-22T04:33:31;2.13;;;1.63;;
7233;SDS011;3658;47.992;10.158;2023-06-22T04:35:58;1.87;;;1.30;;
7233;SDS011;3658;47.992;10.158;2023-06-22T04:38:26;1.63;;;1.53;;
7233;SDS011;3658;47.992;10.158;2023-06-22T04:40:53;1.80;;;1.50;;
7233;SDS011;3658;47.992;10.158;2023-06-22T04:43:20;2.30;;;1.57;;
7233;SDS011;3658;47.992;10.158;2023-06-22T04:45:46;1.50;;;1.40;;
7233;SDS011;3658;47.992;10.158;2023-06-22T04:48:17;1.57;;;1.47;;
7233;SDS011;3658;47.992;10.158;2023-06-22T04:50:45;1.83;;;1.60;;
7233;SDS011;3658;47.992;10.158;2023-06-22T04:53:12;1.50;;;1.40;;
7233;SDS011;3658;47.992;10.158;2023-06-22T04:55:39;1.40;;;1.30;;
7233;SDS011;3658;47.992;10.158;2023-06-22T04:58:10;1.60;;;1.50;;
7233;SDS011;3658;47.992;10.158;2023-06-22T05:00:38;1.60;;;1.50;;
7233;SDS011;3658;47.992;10.158;2023-06-22T05:03:05;1.63;;;1.43;;
7233;SDS011;3658;47.992;10.158;2023-06-22T05:05:36;1.77;;;1.40;;
7233;SDS011;3658;47.992;10.158;2023-06-22T05:08:04;1.80;;;1.70;;
7233;SDS011;3658;47.992;10.158;2023-06-22T05:10:31;1.50;;;1.40;;
7233;SDS011;3658;47.992;10.158;2023-06-22T05:12:58;1.70;;;1.60;;
7233;SDS011;3658;47.992;10.158;2023-06-22T05:15:25;1.97;;;1.40;;
7233;SDS011;3658;47.992;10.158;2023-06-22T05:17:55;6.13;;;4.27;;
7233;SDS011;3658;47.992;10.158;2023-06-22T05:20:23;7.43;;;4.87;;
7233;SDS011;3658;47.992;10.158;2023-06-22T05:22:50;11.33;;;5.53;;
7233;SDS011;3658;47.992;10.158;2023-06-22T05:25:18;12.07;;;5.93;;
7233;SDS011;3658;47.992;10.158;2023-06-22T05:27:45;8.50;;;5.87;;
7233;SDS011;3658;47.992;10.158;2023-06-22T05:30:12;11.03;;;6.13;;
7233;SDS011;3658;47.992;10.158;2023-06-22T05:32:39;8.77;;;6.63;;
7233;SDS011;3658;47.992;10.158;2023-06-22T05:35:06;7.70;;;5.27;;
7233;SDS011;3658;47.992;10.158;2023-06-22T05:37:33;11.10;;;6.30;;
7233;SDS011;3658;47.992;10.158;2023-06-22T05:40:00;9.87;;;6.10;;
7233;SDS011;3658;47.992;10.158;2023-06-22T05:42:29;10.47;;;6.10;;
7233;SDS011;3658;47.992;10.158;2023-06-22T05:44:56;10.90;;;6.53;;
7233;SDS011;3658;47.992;10.158;2023-06-22T05:47:23;10.90;;;5.93;;
7233;SDS011;3658;47.992;10.158;2023-06-22T05:49:50;9.73;;;6.03;;
7233;SDS011;3658;47.992;10.158;2023-06-22T05:52:17;9.57;;;5.27;;
7233;SDS011;3658;47.992;10.158;2023-06-22T05:54:44;10.57;;;5.70;;
7233;SDS011;3658;47.992;10.158;2023-06-22T05:57:10;9.97;;;6.40;;
7233;SDS011;3658;47.992;10.158;2023-06-22T05:59:39;9.17;;;6.30;;
7233;SDS011;3658;47.992;10.158;2023-06-22T06:02:05;12.87;;;6.27;;
7233;SDS011;3658;47.992;10.158;2023-06-22T06:04:32;9.17;;;5.87;;
7233;SDS011;3658;47.992;10.158;2023-06-22T06:06:59;6.93;;;5.50;;
7233;SDS011;3658;47.992;10.158;2023-06-22T06:09:26;9.23;;;5.80;;
7233;SDS011;3658;47.992;10.158;2023-06-22T06:11:53;10.37;;;6.50;;
7233;SDS011;3658;47.992;10.158;2023-06-22T06:14:20;11.57;;;6.13;;
7233;SDS011;3658;47.992;10.158;2023-06-22T06:16:48;7.23;;;5.50;;
7233;SDS011;3658;47.992;10.158;2023-06-22T06:19:15;10.53;;;6.23;;
7233;SDS011;3658;47.992;10.158;2023-06-22T06:21:41;8.00;;;5.47;;
7233;SDS011;3658;47.992;10.158;2023-06-22T06:24:08;9.47;;;5.77;;
7233;SDS011;3658;47.992;10.158;2023-06-22T06:26:35;9.50;;;5.90;;
7233;SDS011;3658;47.992;10.158;2023-06-22T06:29:02;10.13;;;5.80;;
7233;SDS011;3658;47.992;10.158;2023-06-22T06:31:29;9.00;;;6.53;;
7233;SDS011;3658;47.992;10.158;2023-06-22T06:33:57;13.97;;;7.13;;
7233;SDS011;3658;47.992;10.158;2023-06-22T06:36:24;11.90;;;6.50;;
7233;SDS011;3658;47.992;10.158;2023-06-22T06:38:51;10.20;;;5.60;;
7233;SDS011;3658;47.992;10.158;2023-06-22T06:41:18;12.07;;;6.20;;
7233;SDS011;3658;47.992;10.158;2023-06-22T06:43:46;15.07;;;5.93;;
7233;SDS011;3658;47.992;10.158;2023-06-22T06:46:12;9.77;;;5.87;;
7233;SDS011;3658;47.992;10.158;2023-06-22T06:48:39;13.70;;;5.77;;
7233;SDS011;3658;47.992;10.158;2023-06-22T06:51:07;8.23;;;5.13;;
7233;SDS011;3658;47.992;10.158;2023-06-22T06:53:35;9.07;;;5.50;;
7233;SDS011;3658;47.992;10.158;2023-06-22T06:56:02;7.80;;;5.53;;
7233;SDS011;3658;47.992;10.158;2023-06-22T06:58:30;6.67;;;5.03;;
7233;SDS011;3658;47.992;10.158;2023-06-22T07:00:57;7.20;;;4.57;;
7233;SDS011;3658;47.992;10.158;2023-06-22T07:03:23;5.90;;;5.07;;
7233;SDS011;3658;47.992;10.158;2023-06-22T07:05:50;6.57;;;4.50;;
7233;SDS011;3658;47.992;10.158;2023-06-22T07:08:18;7.33;;;4.63;;
7233;SDS011;3658;47.992;10.158;2023-06-22T07:10:46;7.23;;;4.60;;
7233;SDS011;3658;47.992;10.158;2023-06-22T07:13:13;7.60;;;4.53;;
7233;SDS011;3658;47.992;10.158;2023-06-22T07:15:40;6.33;;;4.20;;
7233;SDS011;3658;47.992;10.158;2023-06-22T07:18:07;6.07;;;4.47;;
7233;SDS011;3658;47.992;10.158;2023-06-22T07:20:33;7.47;;;5.10;;
7233;SDS011;3658;47.992;10.158;2023-06-22T07:23:00;10.97;;;6.43;;
7233;SDS011;3658;47.992;10.158;2023-06-22T07:25:28;11.03;;;5.27;;
7233;SDS011;3658;47.992;10.158;2023-06-22T07:27:59;10.37;;;6.03;;
7233;SDS011;3658;47.992;10.158;2023-06-22T07:30:27;11.57;;;5.93;;
7233;SDS011;3658;47.992;10.158;2023-06-22T07:32:54;9.27;;;5.77;;
7233;SDS011;3658;47.992;10.158;2023-06-22T07:35:21;11.33;;;5.10;;
7233;SDS011;3658;47.992;10.158;2023-06-22T07:37:48;8.13;;;5.40;;
7233;SDS011;3658;47.992;10.158;2023-06-22T07:40:15;10.83;;;5.23;;
7233;SDS011;3658;47.992;10.158;2023-06-22T07:42:43;9.33;;;5.00;;
7233;SDS011;3658;47.992;10.158;2023-06-22T07:45:13;11.03;;;5.13;;
7233;SDS011;3658;47.992;10.158;2023-06-22T07:47:40;10.27;;;5.50;;
7233;SDS011;3658;47.992;10.158;2023-06-22T07:50:07;8.80;;;5.57;;
7233;SDS011;3658;47.992;10.158;2023-06-22T07:52:34;8.93;;;5.47;;
7233;SDS011;3658;47.992;10.158;2023-06-22T07:55:01;8.87;;;5.43;;
7233;SDS011;3658;47.992;10.158;2023-06-22T07:57:29;8.77;;;4.97;;
7233;SDS011;3658;47.992;10.158;2023-06-22T08:00:00;10.33;;;5.07;;
7233;SDS011;3658;47.992;10.158;2023-06-22T08:02:29;8.23;;;4.60;;
7233;SDS011;3658;47.992;10.158;2023-06-22T08:04:55;13.00;;;5.10;;
7233;SDS011;3658;47.992;10.158;2023-06-22T08:07:22;12.80;;;5.30;;
7233;SDS011;3658;47.992;10.158;2023-06-22T08:09:49;7.23;;;5.27;;
7233;SDS011;3658;47.992;10.158;2023-06-22T08:12:16;16.90;;;5.53;;
7233;SDS011;3658;47.992;10.158;2023-06-22T08:14:43;11.97;;;5.53;;
7233;SDS011;3658;47.992;10.158;2023-06-22T08:17:12;8.23;;;5.07;;
7233;SDS011;3658;47.992;10.158;2023-06-22T08:19:39;8.73;;;4.77;;
7233;SDS011;3658;47.992;10.158;2023-06-22T08:22:06;8.20;;;4.80;;
7233;SDS011;3658;47.992;10.158;2023-06-22T08:24:33;9.83;;;4.90;;
7233;SDS011;3658;47.992;10.158;2023-06-22T08:27:00;8.30;;;4.63;;
7233;SDS011;3658;47.992;10.158;2023-06-22T08:29:27;7.50;;;4.53;;
7233;SDS011;3658;47.992;10.158;2023-06-22T08:31:56;7.13;;;5.17;;
7233;SDS011;3658;47.992;10.158;2023-06-22T08:34:24;5.80;;;4.40;;
7233;SDS011;3658;47.992;10.158;2023-06-22T08:36:52;7.77;;;4.47;;
7233;SDS011;3658;47.992;10.158;2023-06-22T08:39:19;8.13;;;4.63;;
7233;SDS011;3658;47.992;10.158;2023-06-22T08:41:46;10.57;;;5.10;;
7233;SDS011;3658;47.992;10.158;2023-06-22T08:44:13;9.57;;;4.50;;
7233;SDS011;3658;47.992;10.158;2023-06-22T08:46:40;7.37;;;4.77;;
7233;SDS011;3658;47.992;10.158;2023-06-22T08:49:07;9.07;;;4.77;;
7233;SDS011;3658;47.992;10.158;2023-06-22T08:51:36;9.23;;;4.97;;
7233;SDS011;3658;47.992;10.158;2023-06-22T08:54:03;12.30;;;4.50;;
7233;SDS011;3658;47.992;10.158;2023-06-22T08:56:30;11.67;;;4.87;;
7233;SDS011;3658;47.992;10.158;2023-06-22T08:58:56;9.87;;;4.70;;
7233;SDS011;3658;47.992;10.158;2023-06-22T09:01:23;8.67;;;4.70;;
7233;SDS011;3658;47.992;10.158;2023-06-22T09:03:50;7.77;;;4.37;;
7233;SDS011;3658;47.992;10.158;2023-06-22T09:06:22;8.60;;;4.13;;
7233;SDS011;3658;47.992;10.158;2023-06-22T09:08:50;11.47;;;4.70;;
7233;SDS011;3658;47.992;10.158;2023-06-22T09:11:17;9.23;;;4.40;;
7233;SDS011;3658;47.992;10.158;2023-06-22T09:13:44;14.30;;;4.70;;
7233;SDS011;3658;47.992;10.158;2023-06-22T09:16:11;8.13;;;4.47;;
7233;SDS011;3658;47.992;10.158;2023-06-22T09:18:38;8.77;;;4.60;;
7233;SDS011;3658;47.992;10.158;2023-06-22T09:21:04;6.87;;;4.10;;
7233;SDS011;3658;47.992;10.158;2023-06-22T09:23:31;12.97;;;4.37;;
7233;SDS011;3658;47.992;10.158;2023-06-22T09:25:59;8.77;;;4.07;;
7233;SDS011;3658;47.992;10.158;2023-06-22T09:28:26;7.63;;;4.10;;
7233;SDS011;3658;47.992;10.158;2023-06-22T09:30:53;7.43;;;4.40;;
7233;SDS011;3658;47.992;10.158;2023-06-22T09:33:24;8.47;;;4.50;;
7233;SDS011;3658;47.992;10.158;2023-06-22T09:35:51;7.60;;;4.20;;
7233;SDS011;3658;47.992;10.158;2023-06-22T09:38:17;8.53;;;4.20;;
7233;SDS011;3658;47.992;10.158;2023-06-22T09:40:44;6.80;;;4.03;;
7233;SDS011;3658;47.992;10.158;2023-06-22T09:43:12;7.90;;;4.17;;
7233;SDS011;3658;47.992;10.158;2023-06-22T09:45:39;9.40;;;4.57;;
7233;SDS011;3658;47.992;10.158;2023-06-22T09:48:06;9.67;;;4.87;;
7233;SDS011;3658;47.992;10.158;2023-06-22T09:50:34;11.57;;;4.07;;
7233;SDS011;3658;47.992;10.158;2023-06-22T09:53:01;6.17;;;4.10;;
7233;SDS011;3658;47.992;10.158;2023-06-22T09:55:28;6.20;;;4.20;;
7233;SDS011;3658;47.992;10.158;2023-06-22T09:57:55;5.10;;;3.80;;
7233;SDS011;3658;47.992;10.158;2023-06-22T10:00:23;6.53;;;3.87;;
7233;SDS011;3658;47.992;10.158;2023-06-22T10:02:51;7.03;;;4.23;;
7233;SDS011;3658;47.992;10.158;2023-06-22T10:05:18;8.87;;;3.80;;
7233;SDS011;3658;47.992;10.158;2023-06-22T10:07:45;5.50;;;4.10;;
7233;SDS011;3658;47.992;10.158;2023-06-22T10:10:12;5.43;;;3.60;;
7233;SDS011;3658;47.992;10.158;2023-06-22T10:12:45;7.07;;;3.60;;
7233;SDS011;3658;47.992;10.158;2023-06-22T10:15:13;5.33;;;4.20;;
7233;SDS011;3658;47.992;10.158;2023-06-22T10:17:42;6.60;;;4.13;;
7233;SDS011;3658;47.992;10.158;2023-06-22T10:20:08;7.70;;;4.40;;
7233;SDS011;3658;47.992;10.158;2023-06-22T10:22:38;12.87;;;4.97;;
7233;SDS011;3658;47.992;10.158;2023-06-22T10:25:08;12.03;;;5.13;;
7233;SDS011;3658;47.992;10.158;2023-06-22T10:27:36;14.03;;;6.30;;
7233;SDS011;3658;47.992;10.158;2023-06-22T10:30:05;11.90;;;5.80;;
7233;SDS011;3658;47.992;10.158;2023-06-22T10:32:32;13.27;;;6.80;;
7233;SDS011;3658;47.992;10.158;2023-06-22T10:35:00;11.53;;;6.20;;
7233;SDS011;3658;47.992;10.158;2023-06-22T10:37:27;12.40;;;6.73;;
7233;SDS011;3658;47.992;10.158;2023-06-22T10:39:54;8.23;;;5.47;;
7233;SDS011;3658;47.992;10.158;2023-06-22T10:42:21;11.80;;;5.90;;
7233;SDS011;3658;47.992;10.158;2023-06-22T10:44:47;12.40;;;6.13;;
7233;SDS011;3658;47.992;10.158;2023-06-22T10:47:14;10.20;;;5.97;;
7233;SDS011;3658;47.992;10.158;2023-06-22T10:49:41;8.97;;;6.17;;
7233;SDS011;3658;47.992;10.158;2023-06-22T10:52:09;11.27;;;6.70;;
7233;SDS011;3658;47.992;10.158;2023-06-22T10:54:37;13.67;;;6.87;;
7233;SDS011;3658;47.992;10.158;2023-06-22T10:57:04;14.20;;;7.17;;
7233;SDS011;3658;47.992;10.158;2023-06-22T10:59:32;15.53;;;6.57;;
7233;SDS011;3658;47.992;10.158;2023-06-22T11:01:59;11.57;;;6.53;;
7233;SDS011;3658;47.992;10.158;2023-06-22T11:04:25;11.10;;;7.20;;
7233;SDS011;3658;47.992;10.158;2023-06-22T11:06:52;11.67;;;7.40;;
7233;SDS011;3658;47.992;10.158;2023-06-22T11:09:22;14.17;;;6.70;;
7233;SDS011;3658;47.992;10.158;2023-06-22T11:11:50;16.17;;;7.20;;
7233;SDS011;3658;47.992;10.158;2023-06-22T11:14:19;9.57;;;6.23;;
7233;SDS011;3658;47.992;10.158;2023-06-22T11:16:46;11.30;;;6.43;;
7233;SDS011;3658;47.992;10.158;2023-06-22T11:19:12;10.47;;;6.63;;
7233;SDS011;3658;47.992;10.158;2023-06-22T11:21:39;12.83;;;6.63;;
7233;SDS011;3658;47.992;10.158;2023-06-22T11:24:06;8.13;;;6.00;;
7233;SDS011;3658;47.992;10.158;2023-06-22T11:26:34;12.13;;;6.00;;
7233;SDS011;3658;47.992;10.158;2023-06-22T11:29:02;8.63;;;6.03;;
7233;SDS011;3658;47.992;10.158;2023-06-22T11:31:30;11.23;;;6.07;;
7233;SDS011;3658;47.992;10.158;2023-06-22T11:33:57;8.47;;;5.90;;
7233;SDS011;3658;47.992;10.158;2023-06-22T11:36:24;9.83;;;5.80;;
7233;SDS011;3658;47.992;10.158;2023-06-22T11:38:51;8.90;;;6.07;;
7233;SDS011;3658;47.992;10.158;2023-06-22T11:41:18;11.47;;;6.10;;
7233;SDS011;3658;47.992;10.158;2023-06-22T11:43:46;7.77;;;5.63;;
7233;SDS011;3658;47.992;10.158;2023-06-22T11:46:13;9.87;;;6.03;;
7233;SDS011;3658;47.992;10.158;2023-06-22T11:48:40;9.63;;;6.17;;
7233;SDS011;3658;47.992;10.158;2023-06-22T11:51:07;7.23;;;5.37;;
7233;SDS011;3658;47.992;10.158;2023-06-22T11:53:34;7.07;;;5.43;;
7233;SDS011;3658;47.992;10.158;2023-06-22T11:56:01;8.07;;;5.60;;
7233;SDS011;3658;47.992;10.158;2023-06-22T11:58:28;8.63;;;5.83;;
7233;SDS011;3658;47.992;10.158;2023-06-22T12:00:56;8.43;;;5.43;;
7233;SDS011;3658;47.992;10.158;2023-06-22T12:03:23;7.60;;;5.10;;
7233;SDS011;3658;47.992;10.158;2023-06-22T12:05:50;10.20;;;5.30;;
7233;SDS011;3658;47.992;10.158;2023-06-22T12:08:17;6.97;;;5.43;;
7233;SDS011;3658;47.992;10.158;2023-06-22T12:10:44;7.03;;;4.87;;
7233;SDS011;3658;47.992;10.158;2023-06-22T12:13:11;8.90;;;5.13;;
7233;SDS011;3658;47.992;10.158;2023-06-22T12:15:37;7.57;;;5.53;;
7233;SDS011;3658;47.992;10.158;2023-06-22T12:18:05;5.87;;;4.90;;
7233;SDS011;3658;47.992;10.158;2023-06-22T12:20:33;8.93;;;5.47;;
7233;SDS011;3658;47.992;10.158;2023-06-22T12:23:01;5.37;;;4.87;;
7233;SDS011;3658;47.992;10.158;2023-06-22T12:25:28;5.43;;;4.93;;
7233;SDS011;3658;47.992;10.158;2023-06-22T12:27:54;7.90;;;5.07;;
7233;SDS011;3658;47.992;10.158;2023-06-22T12:30:21;13.30;;;5.43;;
7233;SDS011;3658;47.992;10.158;2023-06-22T12:32:48;10.20;;;5.30;;
7233;SDS011;3658;47.992;10.158;2023-06-22T12:35:18;11.50;;;5.17;;
7233;SDS011;3658;47.992;10.158;2023-06-22T12:37:45;8.50;;;5.07;;
7233;SDS011;3658;47.992;10.158;2023-06-22T12:40:12;9.27;;;4.57;;
7233;SDS011;3658;47.992;10.158;2023-06-22T12:42:39;12.53;;;4.80;;
7233;SDS011;3658;47.992;10.158;2023-06-22T12:45:07;7.87;;;4.43;;
7233;SDS011;3658;47.992;10.158;2023-06-22T12:47:34;10.33;;;5.57;;
7233;SDS011;3658;47.992;10.158;2023-06-22T12:50:01;10.73;;;4.90;;
7233;SDS011;3658;47.992;10.158;2023-06-22T12:52:30;9.50;;;4.43;;
7233;SDS011;3658;47.992;10.158;2023-06-22T12:54:58;9.87;;;4.97;;
7233;SDS011;3658;47.992;10.158;2023-06-22T12:57:24;11.17;;;5.23;;
7233;SDS011;3658;47.992;10.158;2023-06-22T12:59:51;9.10;;;5.03;;
7233;SDS011;3658;47.992;10.158;2023-06-22T13:02:18;16.57;;;5.57;;
7233;SDS011;3658;47.992;10.158;2023-06-22T13:04:45;14.57;;;4.90;;
7233;SDS011;3658;47.992;10.158;2023-06-22T13:07:12;10.10;;;4.90;;
7233;SDS011;3658;47.992;10.158;2023-06-22T13:09:40;10.00;;;4.67;;
7233;SDS011;3658;47.992;10.158;2023-06-22T13:12:07;10.73;;;4.90;;
7233;SDS011;3658;47.992;10.158;2023-06-22T13:14:34;8.53;;;4.57;;
7233;SDS011;3658;47.992;10.158;2023-06-22T13:17:01;14.37;;;5.00;;
7233;SDS011;3658;47.992;10.158;2023-06-22T13:19:28;7.87;;;4.70;;
7233;SDS011;3658;47.992;10.158;2023-06-22T13:21:57;9.33;;;4.60;;
7233;SDS011;3658;47.992;10.158;2023-06-22T13:24:24;9.87;;;4.63;;
7233;SDS011;3658;47.992;10.158;2023-06-22T13:26:54;9.80;;;5.33;;
7233;SDS011;3658;47.992;10.158;2023-06-22T13:29:28;13.10;;;4.90;;
7233;SDS011;3658;47.992;10.158;2023-06-22T13:31:55;10.67;;;5.00;;
7233;SDS011;3658;47.992;10.158;2023-06-22T13:34:22;11.10;;;5.23;;
7233;SDS011;3658;47.992;10.158;2023-06-22T13:36:48;9.80;;;4.73;;
7233;SDS011;3658;47.992;10.158;2023-06-22T13:39:15;8.87;;;4.80;;
7233;SDS011;3658;47.992;10.158;2023-06-22T13:41:42;9.00;;;4.60;;
7233;SDS011;3658;47.992;10.158;2023-06-22T13:44:10;8.53;;;4.97;;
7233;SDS011;3658;47.992;10.158;2023-06-22T13:46:37;9.50;;;4.30;;
7233;SDS011;3658;47.992;10.158;2023-06-22T13:49:03;13.83;;;4.97;;
7233;SDS011;3658;47.992;10.158;2023-06-22T13:51:30;7.83;;;4.53;;
7233;SDS011;3658;47.992;10.158;2023-06-22T13:53:57;8.50;;;3.93;;
7233;SDS011;3658;47.992;10.158;2023-06-22T13:56:26;11.47;;;4.00;;
7233;SDS011;3658;47.992;10.158;2023-06-22T13:58:53;8.57;;;4.43;;
7233;SDS011;3658;47.992;10.158;2023-06-22T14:01:21;7.77;;;4.27;;
7233;SDS011;3658;47.992;10.158;2023-06-22T14:03:48;12.00;;;4.50;;
7233;SDS011;3658;47.992;10.158;2023-06-22T14:06:17;7.63;;;4.33;;
7233;SDS011;3658;47.992;10.158;2023-06-22T14:08:44;10.87;;;4.70;;
7233;SDS011;3658;47.992;10.158;2023-06-22T14:11:11;5.37;;;4.00;;
7233;SDS011;3658;47.992;10.158;2023-06-22T14:13:38;9.73;;;4.33;;
7233;SDS011;3658;47.992;10.158;2023-06-22T14:16:07;6.27;;;3.90;;
7233;SDS011;3658;47.992;10.158;2023-06-22T14:18:36;9.67;;;4.20;;
7233;SDS011;3658;47.992;10.158;2023-06-22T14:21:03;12.10;;;4.80;;
7233;SDS011;3658;47.992;10.158;2023-06-22T14:23:30;7.03;;;4.40;;
7233;SDS011;3658;47.992;10.158;2023-06-22T14:25:56;5.33;;;4.07;;
7233;SDS011;3658;47.992;10.158;2023-06-22T14:28:23;6.07;;;3.93;;
7233;SDS011;3658;47.992;10.158;2023-06-22T14:30:50;9.03;;;4.00;;
7233;SDS011;3658;47.992;10.158;2023-06-22T14:33:17;6.83;;;4.13;;
7233;SDS011;3658;47.992;10.158;2023-06-22T14:35:45;5.37;;;3.73;;
7233;SDS011;3658;47.992;10.158;2023-06-22T14:38:12;8.80;;;4.17;;
7233;SDS011;3658;47.992;10.158;2023-06-22T14:40:39;7.80;;;4.13;;
7233;SDS011;3658;47.992;10.158;2023-06-22T14:43:05;7.70;;;3.80;;
7233;SDS011;3658;47.992;10.158;2023-06-22T14:45:32;9.80;;;4.10;;
7233;SDS011;3658;47.992;10.158;2023-06-22T14:47:59;5.40;;;3.60;;
7233;SDS011;3658;47.992;10.158;2023-06-22T14:53:49;10.93;;;4.33;;
7233;SDS011;3658;47.992;10.158;2023-06-22T14:56:16;6.90;;;4.20;;
7233;SDS011;3658;47.992;10.158;2023-06-22T14:58:43;7.40;;;3.63;;
7233;SDS011;3658;47.992;10.158;2023-06-22T15:01:11;7.07;;;3.97;;
7233;SDS011;3658;47.992;10.158;2023-06-22T15:03:38;5.77;;;4.03;;